Elys, Kentucky
Current Conditions -  °F | °C
As of 11:15 PM on Sunday 25 Jan 2015 (Local Time) from K1A6 Reporting Station
Overcast Overcast  
Wind Chill: 42°   Ceiling: 4200
Heat Index: 46°   Visibility: 10mi
Dew Point: 39°   Wind: 6mph
Humidity: 78%   Direction: 200°SSW
Pressure: 29.67"   Gusts: 9mph
Location:  36.7964°N, 83.7393°W
Report Text: K1A6 260415Z AUTO 20005G08KT 10SM SCT034 BKN042 OVC050 08/04 A2967 RMK AO2 T00750038
Loading
Personal Weather Stations






























Interactive Weather Map New forecast layout! Learn more

10-Day Weather Forecast

Advertisements
Track Severe Weather on mobile